Time;durP1;ratioP1;P1;durP2;ratioP2;P2;SDS_P1;SDS_P2;PMS_P1;PMS_P2;Temp;Humidity;BMP_temperature;BMP_pressure;BME280_temperature;BME280_humidity;BME280_pressure;Samples;Min_cycle;Max_cycle;Signal;HPM_P1;HPM_P2
2023/01/12 00:01:32;;;;;;;118.38;71.07;;;4.10;14.70;;;;;;4981579;28;20050;-74
2023/01/12 00:04:01;;;;;;;123.63;74.28;;;4.20;99.90;;;;;;4978762;28;20102;-76
2023/01/12 00:06:31;;;;;;;150.63;90.75;;;4.20;1.00;;;;;;4963427;28;20097;-78
2023/01/12 00:08:59;;;;;;;148.85;89.80;;;4.20;1.00;;;;;;4961285;28;20054;-78
2023/01/12 00:11:26;;;;;;;144.65;86.78;;;4.20;1.00;;;;;;4961948;28;20041;-76
2023/01/12 00:13:54;;;;;;;137.02;86.13;;;4.30;1.00;;;;;;4968646;28;20053;-75
2023/01/12 00:16:37;;;;;;;125.68;77.72;;;4.30;99.90;;;;;;4969444;28;20043;-77
2023/01/12 00:19:14;;;;;;;118.50;75.40;;;4.30;1.00;;;;;;4974595;28;20046;-79
2023/01/12 00:21:58;;;;;;;126.57;80.68;;;4.20;1.00;;;;;;4983190;28;20046;-81
2023/01/12 00:24:30;;;;;;;137.45;84.93;;;4.30;1.00;;;;;;4963607;28;20495;-78
2023/01/12 00:26:59;;;;;;;145.75;89.93;;;4.30;99.90;;;;;;4961931;28;20043;-78
2023/01/12 00:29:27;;;;;;;157.35;94.85;;;4.40;1.00;;;;;;4964213;28;20043;-77
2023/01/12 00:31:57;;;;;;;167.48;97.38;;;4.40;1.00;;;;;;4963793;28;20046;-76
2023/01/12 00:34:25;;;;;;;145.13;88.35;;;4.30;1.00;;;;;;4964005;28;20047;-78
2023/01/12 00:36:53;;;;;;;148.55;93.57;;;4.30;1.00;;;;;;4962616;28;20057;-77
2023/01/12 00:39:21;;;;;;;151.80;92.85;;;4.20;1.00;;;;;;4964364;28;20043;-78
2023/01/12 00:47:20;;;;;;;125.57;72.97;;;4.40;99.90;;;;;;4961389;28;20046;-81
2023/01/12 00:49:48;;;;;;;121.72;72.10;;;4.60;99.90;;;;;;4961137;28;20070;-78
2023/01/12 00:52:19;;;;;;;129.18;75.32;;;4.60;99.90;;;;;;4960626;28;20419;-78
2023/01/12 00:54:46;;;;;;;122.38;75.05;;;4.60;1.00;;;;;;4961459;28;20035;-77
2023/01/12 00:57:16;;;;;;;116.20;71.20;;;4.60;1.00;;;;;;4961757;28;20066;-78
2023/01/12 00:59:44;;;;;;;115.85;69.85;;;4.60;1.00;;;;;;4959899;28;20074;-75
2023/01/12 01:02:12;;;;;;;109.10;67.22;;;4.70;1.00;;;;;;4960339;28;20038;-78
2023/01/12 01:04:41;;;;;;;107.45;64.95;;;4.80;1.00;;;;;;4961192;28;20047;-78
2023/01/12 01:07:08;;;;;;;117.97;69.03;;;4.90;1.00;;;;;;4961808;28;20047;-77
2023/01/12 01:09:35;;;;;;;111.28;68.45;;;4.90;1.00;;;;;;4979365;28;20050;-77
2023/01/12 01:12:03;;;;;;;112.13;68.30;;;4.90;1.00;;;;;;4962205;28;20097;-78
2023/01/12 01:14:30;;;;;;;114.32;70.13;;;4.90;8.00;;;;;;4963601;28;20035;-78
2023/01/12 01:16:58;;;;;;;109.20;65.65;;;4.90;99.90;;;;;;4962092;28;20126;-78
2023/01/12 01:19:25;;;;;;;104.18;64.63;;;4.90;1.00;;;;;;4960849;28;20124;-78
2023/01/12 01:21:54;;;;;;;108.35;66.85;;;4.90;99.90;;;;;;4960584;28;20047;-78
2023/01/12 01:24:22;;;;;;;114.68;69.75;;;4.90;1.00;;;;;;4959171;28;20057;-77
2023/01/12 01:26:50;;;;;;;119.93;72.15;;;4.80;99.90;;;;;;4960014;28;20094;-79
2023/01/12 01:29:17;;;;;;;129.63;79.85;;;4.70;99.90;;;;;;4960729;28;20039;-78
2023/01/12 01:31:46;;;;;;;114.82;70.10;;;4.70;99.90;;;;;;4959785;28;20055;-79
2023/01/12 01:34:13;;;;;;;114.63;67.63;;;4.70;99.90;;;;;;4960009;28;20058;-79
2023/01/12 01:36:41;;;;;;;110.18;67.70;;;4.60;73.60;;;;;;4960771;28;20047;-77
2023/01/12 01:39:10;;;;;;;117.47;72.80;;;4.50;1.00;;;;;;4960952;28;20050;-78
2023/01/12 01:41:37;;;;;;;119.93;74.90;;;4.40;1.00;;;;;;4961153;28;20067;-79
2023/01/12 01:44:45;;;;;;;127.72;79.80;;;4.30;1.00;;;;;;4960532;28;20161;-78
2023/01/12 01:47:20;;;;;;;123.63;80.15;;;4.20;99.90;;;;;;4961478;28;20102;-77
2023/01/12 01:49:51;;;;;;;133.93;85.93;;;4.20;99.90;;;;;;4960306;28;20043;-77
2023/01/12 01:52:21;;;;;;;132.90;89.15;;;4.20;99.90;;;;;;4971856;28;20039;-75
2023/01/12 01:54:55;;;;;;;125.00;83.38;;;4.20;99.90;;;;;;4977396;28;20054;-74
2023/01/12 01:57:24;;;;;;;122.43;80.53;;;4.30;99.90;;;;;;4968872;28;20047;-77
2023/01/12 01:59:54;;;;;;;115.38;74.13;;;4.30;99.90;;;;;;4959738;28;20043;-80
2023/01/12 02:02:24;;;;;;;107.95;70.07;;;4.30;99.90;;;;;;4960766;28;20040;-80
2023/01/12 02:04:52;;;;;;;114.95;70.55;;;4.30;99.90;;;;;;4959352;28;20042;-78
2023/01/12 02:07:20;;;;;;;104.63;65.13;;;4.20;99.90;;;;;;4961153;28;20043;-79
2023/01/12 02:09:47;;;;;;;85.45;50.35;;;4.20;99.90;;;;;;4958040;28;20039;-75
2023/01/12 02:18:00;;;;;;;75.50;46.60;;;4.30;99.90;;;;;;4959992;28;19922;-79
2023/01/12 02:20:47;;;;;;;80.28;48.58;;;4.30;99.90;;;;;;4960011;28;20038;-79
2023/01/12 02:24:06;;;;;;;89.07;54.03;;;4.30;99.90;;;;;;4960966;28;20043;-78
2023/01/12 02:27:16;;;;;;;89.47;55.38;;;4.30;99.90;;;;;;4961170;28;20043;-74
2023/01/12 02:30:22;;;;;;;88.60;55.85;;;4.20;99.90;;;;;;4970812;28;20038;-77
2023/01/12 02:33:02;;;;;;;109.07;67.20;;;4.20;99.90;;;;;;4953841;28;20067;-77
2023/01/12 02:35:39;;;;;;;107.95;67.68;;;4.20;99.90;;;;;;4964445;28;20042;-77
2023/01/12 02:38:17;;;;;;;105.68;65.05;;;4.20;99.90;;;;;;4964340;28;20036;-75
2023/01/12 02:40:51;;;;;;;103.80;60.58;;;4.20;99.90;;;;;;4981698;28;20121;-75
2023/01/12 02:43:23;;;;;;;95.15;58.85;;;4.20;99.90;;;;;;4963632;28;20060;-78
2023/01/12 02:45:54;;;;;;;86.63;55.95;;;4.30;99.90;;;;;;4962624;28;20190;-79
2023/01/12 02:48:28;;;;;;;76.85;48.05;;;4.40;99.90;;;;;;4963861;28;20046;-79
2023/01/12 02:51:01;;;;;;;70.25;44.40;;;4.40;99.90;;;;;;4964987;28;20047;-79
2023/01/12 02:53:34;;;;;;;60.03;37.28;;;4.40;99.90;;;;;;4964263;28;20671;-75
2023/01/12 02:56:04;;;;;;;66.28;43.22;;;4.40;99.90;;;;;;4964675;28;20050;-78
2023/01/12 02:58:36;;;;;;;61.38;37.15;;;4.40;99.90;;;;;;4963822;28;20043;-76
2023/01/12 03:01:06;;;;;;;59.25;38.20;;;4.40;99.90;;;;;;4961430;28;20044;-75
2023/01/12 03:03:38;;;;;;;61.65;37.17;;;4.40;1.00;;;;;;4963868;28;20039;-77
2023/01/12 03:06:07;;;;;;;60.55;38.35;;;4.40;85.50;;;;;;4972782;28;20095;-77
2023/01/12 03:08:38;;;;;;;57.85;36.35;;;4.50;99.90;;;;;;4986044;28;20054;-75
2023/01/12 03:11:12;;;;;;;54.08;33.58;;;4.60;99.90;;;;;;4965973;28;20069;-74
2023/01/12 03:13:44;;;;;;;50.15;33.53;;;4.60;99.90;;;;;;4962922;28;20043;-78
2023/01/12 03:16:14;;;;;;;53.22;33.65;;;4.60;1.00;;;;;;4962770;28;20238;-75
2023/01/12 03:18:48;;;;;;;56.17;35.47;;;4.70;1.00;;;;;;4963059;28;20049;-76
2023/01/12 03:21:21;;;;;;;61.03;37.72;;;4.70;1.00;;;;;;4965114;28;20049;-79
2023/01/12 03:23:52;;;;;;;63.03;38.35;;;4.60;1.00;;;;;;4964838;28;20134;-78
2023/01/12 03:26:26;;;;;;;62.80;37.42;;;4.60;99.90;;;;;;4964484;28;20038;-78
2023/01/12 03:29:01;;;;;;;59.17;36.40;;;4.50;99.90;;;;;;4962463;28;20051;-79
2023/01/12 03:31:29;;;;;;;52.78;34.38;;;4.50;1.00;;;;;;4962066;28;20388;-79
2023/01/12 03:33:59;;;;;;;52.95;35.13;;;4.50;1.00;;;;;;4964472;28;20049;-79
2023/01/12 03:36:35;;;;;;;56.22;34.40;;;4.50;1.00;;;;;;4963853;28;20057;-76
2023/01/12 03:39:13;;;;;;;53.95;34.78;;;4.50;1.00;;;;;;4979652;28;20047;-78
2023/01/12 03:41:49;;;;;;;57.10;33.13;;;4.50;1.00;;;;;;4978022;28;20059;-76
2023/01/12 03:44:21;;;;;;;52.60;32.42;;;4.60;1.00;;;;;;4963289;28;20051;-78
2023/01/12 03:46:56;;;;;;;49.97;32.53;;;4.60;1.00;;;;;;4963406;28;20043;-77
2023/01/12 03:49:32;;;;;;;56.95;35.20;;;4.70;4.70;;;;;;4961564;28;20035;-78
2023/01/12 03:52:02;;;;;;;55.15;32.53;;;4.70;1.00;;;;;;4963361;28;20038;-77
2023/01/12 03:54:31;;;;;;;53.03;31.90;;;4.70;99.90;;;;;;4969232;23;20047;-72
2023/01/12 03:57:00;;;;;;;53.17;32.72;;;4.70;1.00;;;;;;4971189;28;20039;-72
2023/01/12 03:59:28;;;;;;;49.72;32.08;;;4.70;1.00;;;;;;4969634;28;20047;-73
2023/01/12 04:01:55;;;;;;;54.33;33.03;;;4.60;1.00;;;;;;4971333;28;20047;-73
2023/01/12 04:04:23;;;;;;;63.85;39.15;;;4.60;99.90;;;;;;4971858;28;20042;-72
2023/01/12 04:06:51;;;;;;;64.50;40.50;;;4.50;99.90;;;;;;4971501;28;20049;-73
2023/01/12 04:09:21;;;;;;;67.03;41.67;;;4.50;99.90;;;;;;4971060;28;20054;-73
2023/01/12 04:14:34;;;;;;;65.30;41.85;;;4.50;1.00;;;;;;4970815;28;20035;-72
2023/01/12 04:17:01;;;;;;;60.92;40.17;;;4.60;1.00;;;;;;4971563;28;20058;-72
2023/01/12 04:19:28;;;;;;;64.97;41.70;;;4.60;1.00;;;;;;4971557;28;20043;-73
2023/01/12 04:24:42;;;;;;;76.00;46.28;;;4.70;1.00;;;;;;4971473;28;20105;-72
2023/01/12 04:27:10;;;;;;;73.32;46.30;;;4.70;1.00;;;;;;4971809;28;20047;-73
2023/01/12 04:29:37;;;;;;;73.25;47.45;;;4.80;1.00;;;;;;4970669;28;20057;-73
2023/01/12 04:32:05;;;;;;;72.22;45.50;;;4.80;1.00;;;;;;4969929;28;20042;-73
2023/01/12 04:34:33;;;;;;;69.03;45.55;;;4.80;1.00;;;;;;4969802;28;20051;-73
2023/01/12 04:37:03;;;;;;;64.22;41.83;;;4.80;1.00;;;;;;4970917;28;20039;-73
2023/01/12 04:39:30;;;;;;;66.25;43.22;;;4.80;1.00;;;;;;4969309;28;20051;-71
2023/01/12 04:41:58;;;;;;;68.50;44.55;;;4.80;1.00;;;;;;4969146;28;20050;-71
2023/01/12 04:44:25;;;;;;;71.70;44.42;;;4.90;1.00;;;;;;4970612;28;20435;-73
2023/01/12 04:46:53;;;;;;;79.68;50.55;;;5.00;1.00;;;;;;4971175;28;20047;-72
2023/01/12 04:49:20;;;;;;;79.18;49.33;;;5.00;1.00;;;;;;4970858;28;20047;-72
2023/01/12 04:51:48;;;;;;;64.85;41.10;;;4.90;27.00;;;;;;4970197;28;20068;-72
2023/01/12 04:54:17;;;;;;;59.00;39.97;;;5.00;99.90;;;;;;4969414;28;20031;-72
2023/01/12 04:56:45;;;;;;;82.18;52.08;;;5.00;1.00;;;;;;4959630;28;20035;-72
2023/01/12 04:59:12;;;;;;;81.80;51.63;;;5.00;1.00;;;;;;4960004;28;20064;-72
2023/01/12 05:01:40;;;;;;;82.55;52.97;;;5.00;89.80;;;;;;4964382;28;20098;-72
2023/01/12 05:04:08;;;;;;;83.90;52.10;;;4.90;1.00;;;;;;4965002;28;20054;-71
2023/01/12 05:06:36;;;;;;;85.68;52.72;;;5.00;69.70;;;;;;4963392;28;20054;-72
2023/01/12 05:11:50;;;;;;;82.82;52.92;;;5.00;99.90;;;;;;4959751;28;20090;-71
2023/01/12 05:14:17;;;;;;;71.78;47.03;;;4.90;1.00;;;;;;4943851;28;20402;-73
2023/01/12 05:16:44;;;;;;;77.65;50.70;;;5.00;99.90;;;;;;4961393;28;20039;-72
2023/01/12 05:19:12;;;;;;;87.55;51.80;;;5.00;99.90;;;;;;4959930;28;20047;-71
2023/01/12 05:21:39;;;;;;;75.15;49.83;;;5.10;99.90;;;;;;4959785;28;20035;-73
2023/01/12 05:24:08;;;;;;;76.75;49.08;;;5.10;99.90;;;;;;4960599;28;20043;-73
2023/01/12 05:26:36;;;;;;;72.63;48.95;;;5.10;1.00;;;;;;4960601;28;20118;-73
2023/01/12 05:29:05;;;;;;;77.38;49.63;;;5.10;99.90;;;;;;4959998;28;20051;-72
2023/01/12 05:31:34;;;;;;;81.05;50.13;;;5.10;14.10;;;;;;4960485;28;20043;-73
2023/01/12 05:34:01;;;;;;;85.43;52.40;;;5.20;99.90;;;;;;4959387;28;20426;-72
2023/01/12 05:36:29;;;;;;;77.38;52.20;;;5.10;99.90;;;;;;4960935;28;20042;-72
2023/01/12 05:38:56;;;;;;;95.45;59.47;;;5.00;1.00;;;;;;4962335;28;20050;-73
2023/01/12 05:41:24;;;;;;;108.60;64.07;;;4.90;99.90;;;;;;4960556;28;20063;-73
2023/01/12 05:43:50;;;;;;;95.30;59.85;;;4.90;99.90;;;;;;4958581;28;20050;-72
2023/01/12 05:46:21;;;;;;;104.40;62.80;;;4.90;30.20;;;;;;4961436;28;20090;-72
2023/01/12 05:48:49;;;;;;;107.15;62.60;;;4.90;1.00;;;;;;4960868;28;20070;-73
2023/01/12 05:51:18;;;;;;;90.22;57.03;;;4.90;99.90;;;;;;4960640;28;20043;-72
2023/01/12 05:53:46;;;;;;;99.68;63.50;;;4.90;1.00;;;;;;4960091;28;20652;-72
2023/01/12 05:56:19;;;;;;;104.88;71.32;;;4.90;1.00;;;;;;4967357;28;20503;-72
2023/01/12 05:58:50;;;;;;;112.75;72.43;;;4.90;1.00;;;;;;4969683;28;20043;-72
2023/01/12 06:01:19;;;;;;;103.28;64.63;;;4.80;99.90;;;;;;4971640;28;20495;-73
2023/01/12 06:03:49;;;;;;;102.10;64.85;;;4.70;1.00;;;;;;4971989;28;20043;-73
2023/01/12 06:06:17;;;;;;;92.32;59.28;;;4.80;1.00;;;;;;4974200;28;20066;-72
2023/01/12 06:08:45;;;;;;;82.88;53.78;;;4.70;1.00;;;;;;4978211;28;20043;-73
2023/01/12 06:13:59;;;;;;;101.65;60.58;;;4.70;1.00;;;;;;4973634;28;20050;-72
2023/01/12 06:16:29;;;;;;;90.15;59.90;;;4.80;1.00;;;;;;4974108;28;20039;-73
2023/01/12 06:18:56;;;;;;;77.57;53.60;;;4.90;1.00;;;;;;4973128;28;20094;-72
2023/01/12 06:21:24;;;;;;;84.32;54.67;;;4.80;1.00;;;;;;4973966;28;20050;-73
2023/01/12 06:23:52;;;;;;;85.38;53.63;;;4.80;1.00;;;;;;4973134;28;20042;-72
2023/01/12 06:26:19;;;;;;;65.15;40.55;;;4.80;99.90;;;;;;4973974;28;20078;-73
2023/01/12 06:28:47;;;;;;;60.90;40.92;;;4.80;99.90;;;;;;4973038;28;20039;-73
2023/01/12 06:31:15;;;;;;;86.35;52.15;;;4.70;1.00;;;;;;4972386;28;20043;-71
2023/01/12 06:33:44;;;;;;;91.95;56.50;;;4.80;1.00;;;;;;4972944;28;20041;-73
2023/01/12 06:36:11;;;;;;;111.07;65.63;;;4.80;99.90;;;;;;4973143;28;20050;-72
2023/01/12 06:38:39;;;;;;;152.05;87.72;;;4.80;1.00;;;;;;4973214;28;20038;-73
2023/01/12 06:42:27;;;;;;;146.70;85.25;;;4.80;1.00;;;;;;4972253;28;20526;-72
2023/01/12 06:44:00;;;;;;;149.57;88.50;;;4.90;49.60;;;;;;4972485;28;20042;-73
2023/01/12 06:46:27;;;;;;;126.45;80.65;;;4.90;1.00;;;;;;4970895;28;20411;-74
2023/01/12 06:48:57;;;;;;;107.22;63.22;;;4.80;1.00;;;;;;4972724;28;20041;-74
2023/01/12 06:51:25;;;;;;;136.88;82.93;;;4.80;99.90;;;;;;4972901;28;20530;-72
2023/01/12 06:53:52;;;;;;;134.20;81.10;;;4.70;99.90;;;;;;4972859;28;20059;-73
2023/01/12 06:56:20;;;;;;;104.07;58.88;;;4.70;99.90;;;;;;4963011;28;20047;-72
2023/01/12 06:58:48;;;;;;;118.75;70.70;;;4.80;1.00;;;;;;4961470;28;20051;-72
2023/01/12 07:01:15;;;;;;;104.32;62.55;;;4.80;1.00;;;;;;4962372;28;20045;-73
2023/01/12 07:03:43;;;;;;;104.63;62.75;;;4.90;1.00;;;;;;4960664;28;20077;-72
2023/01/12 07:06:13;;;;;;;111.00;68.50;;;5.00;1.00;;;;;;4964854;28;20414;-74
2023/01/12 07:08:41;;;;;;;108.45;67.43;;;5.10;1.00;;;;;;4961520;28;20034;-72
2023/01/12 07:11:11;;;;;;;108.43;63.20;;;5.10;1.00;;;;;;4945078;28;20053;-73
2023/01/12 07:13:39;;;;;;;104.20;63.85;;;5.20;29.80;;;;;;4961212;28;20122;-73
2023/01/12 07:16:07;;;;;;;109.32;66.07;;;5.30;1.00;;;;;;4965130;28;20072;-72
2023/01/12 07:18:34;;;;;;;105.68;64.63;;;5.30;99.90;;;;;;4963431;28;20049;-72
2023/01/12 07:21:04;;;;;;;110.28;66.60;;;5.40;99.90;;;;;;4962135;28;20045;-72
2023/01/12 07:23:33;;;;;;;104.28;63.58;;;5.30;1.00;;;;;;4945152;28;20051;-72
2023/01/12 07:26:01;;;;;;;105.30;66.03;;;5.20;1.00;;;;;;4960418;28;20175;-70
2023/01/12 07:28:30;;;;;;;144.40;88.85;;;5.20;1.00;;;;;;4957742;28;20039;-72
2023/01/12 07:31:00;;;;;;;137.27;86.40;;;5.20;99.90;;;;;;4962811;28;20103;-72
2023/01/12 07:33:28;;;;;;;148.52;92.00;;;5.20;99.90;;;;;;4962747;28;20047;-73
2023/01/12 07:35:58;;;;;;;125.15;81.07;;;5.20;1.00;;;;;;4960786;28;20063;-73
2023/01/12 07:38:26;;;;;;;110.80;72.47;;;5.30;1.00;;;;;;4961342;28;20102;-74
2023/01/12 07:40:54;;;;;;;115.00;72.35;;;5.30;99.90;;;;;;4944316;28;20407;-72
2023/01/12 07:43:22;;;;;;;111.55;72.22;;;5.30;1.00;;;;;;4961858;28;20134;-73
2023/01/12 07:45:49;;;;;;;130.82;79.75;;;5.50;1.00;;;;;;4961811;28;20047;-73
2023/01/12 07:48:17;;;;;;;179.60;102.35;;;5.50;99.90;;;;;;4962280;28;20047;-73
2023/01/12 07:50:44;;;;;;;157.30;92.47;;;5.50;99.90;;;;;;4962908;28;20058;-72
2023/01/12 07:53:12;;;;;;;142.15;86.90;;;5.50;1.00;;;;;;4963231;28;20051;-73
2023/01/12 07:55:42;;;;;;;149.48;90.40;;;5.60;1.00;;;;;;4969082;28;20082;-73
2023/01/12 07:58:11;;;;;;;150.80;93.55;;;5.60;1.00;;;;;;4972030;28;20042;-73
2023/01/12 08:00:38;;;;;;;177.38;99.20;;;5.60;1.00;;;;;;4972253;28;20045;-72
2023/01/12 08:03:08;;;;;;;221.65;116.07;;;5.50;1.00;;;;;;4972243;28;20482;-73
2023/01/12 08:05:36;;;;;;;319.27;155.90;;;5.50;99.90;;;;;;4971951;28;20034;-73
2023/01/12 08:08:03;;;;;;;299.95;147.40;;;5.50;99.90;;;;;;4970962;28;20407;-72
2023/01/12 08:10:31;;;;;;;293.42;143.93;;;5.40;1.00;;;;;;4971105;28;20042;-72
2023/01/12 08:12:59;;;;;;;302.63;147.80;;;5.40;99.90;;;;;;4973462;28;20066;-74
2023/01/12 08:15:31;;;;;;;265.83;139.73;;;5.40;99.90;;;;;;4979409;28;20045;-73
2023/01/12 08:18:03;;;;;;;306.92;146.93;;;5.50;99.90;;;;;;4972907;28;20045;-73
2023/01/12 08:20:34;;;;;;;274.60;151.60;;;5.50;99.90;;;;;;4971756;28;20047;-73
2023/01/12 08:23:04;;;;;;;306.52;174.68;;;5.50;1.00;;;;;;4971813;28;20054;-74
2023/01/12 08:25:37;;;;;;;250.75;141.88;;;5.40;99.90;;;;;;4972108;28;20411;-73
2023/01/12 08:28:08;;;;;;;227.77;134.85;;;5.40;1.00;;;;;;4971090;28;20567;-72
2023/01/12 08:30:37;;;;;;;284.20;158.18;;;5.30;1.00;;;;;;4973293;28;20043;-74
2023/01/12 08:33:04;;;;;;;260.65;151.45;;;5.30;1.00;;;;;;4954430;28;20046;-73
2023/01/12 08:35:34;;;;;;;235.77;137.05;;;5.30;1.00;;;;;;4972465;28;20043;-74
2023/01/12 08:38:01;;;;;;;244.70;135.70;;;5.50;1.00;;;;;;4971352;28;20055;-72
2023/01/12 08:41:31;;;;;;;240.98;141.35;;;5.60;99.90;;;;;;4971789;28;20461;-73
2023/01/12 08:44:00;;;;;;;251.63;148.15;;;5.70;99.90;;;;;;4970948;28;20051;-72
2023/01/12 08:46:07;;;;;;;249.45;145.30;;;5.80;1.00;;;;;;4953838;28;20068;-73
2023/01/12 08:48:35;;;;;;;216.63;125.88;;;5.80;1.00;;;;;;4970306;28;20039;-74
2023/01/12 08:51:03;;;;;;;225.40;131.73;;;5.80;1.00;;;;;;4953920;28;20054;-72
2023/01/12 08:53:30;;;;;;;209.23;125.38;;;5.80;1.00;;;;;;4971053;28;20054;-74
2023/01/12 08:55:58;;;;;;;217.60;125.15;;;6.00;1.00;;;;;;4970918;28;20141;-73
2023/01/12 08:58:25;;;;;;;224.55;131.70;;;6.10;99.90;;;;;;4970250;28;20045;-73
2023/01/12 09:00:53;;;;;;;216.05;119.72;;;6.20;99.90;;;;;;4971760;28;20035;-72
2023/01/12 09:03:22;;;;;;;216.32;120.57;;;6.20;99.90;;;;;;4971581;28;20093;-73
2023/01/12 09:05:49;;;;;;;226.30;120.30;;;6.30;49.10;;;;;;4971553;28;20043;-72
2023/01/12 09:08:17;;;;;;;210.73;116.00;;;6.30;99.90;;;;;;4970688;28;20041;-73
2023/01/12 09:10:44;;;;;;;210.20;116.47;;;6.30;1.00;;;;;;4953934;28;20046;-72
2023/01/12 09:13:14;;;;;;;214.73;120.22;;;6.30;99.90;;;;;;4972062;28;20046;-73
2023/01/12 09:15:42;;;;;;;228.35;124.80;;;6.20;99.90;;;;;;4953970;28;20050;-73
2023/01/12 09:18:09;;;;;;;211.48;115.25;;;6.30;1.00;;;;;;4971022;28;20042;-73
2023/01/12 09:20:38;;;;;;;200.57;111.90;;;6.30;1.00;;;;;;4969831;28;20114;-73
2023/01/12 09:23:06;;;;;;;197.15;110.45;;;6.40;1.00;;;;;;4970989;28;20081;-73
2023/01/12 09:25:35;;;;;;;194.35;106.88;;;6.40;1.00;;;;;;4969843;28;20082;-73
2023/01/12 09:28:02;;;;;;;187.15;102.40;;;6.70;1.00;;;;;;4970715;28;20043;-72
2023/01/12 09:30:30;;;;;;;204.07;104.40;;;6.80;99.90;;;;;;4971726;28;20043;-72
2023/01/12 09:32:57;;;;;;;206.55;107.00;;;6.80;1.00;;;;;;4969931;28;20114;-75
2023/01/12 09:35:25;;;;;;;181.60;97.88;;;7.00;1.00;;;;;;4970503;28;20047;-73
2023/01/12 09:37:54;;;;;;;187.95;94.82;;;6.80;99.90;;;;;;4968609;28;20035;-72
2023/01/12 09:40:22;;;;;;;194.02;95.07;;;6.90;1.00;;;;;;4971250;28;20082;-73
2023/01/12 09:48:22;;;;;;;170.23;87.47;;;7.60;1.00;;;;;;4970033;28;20062;-72
2023/01/12 09:50:54;;;;;;;166.88;85.35;;;7.60;99.90;;;;;;4969470;28;20188;-73
2023/01/12 09:53:26;;;;;;;159.18;84.55;;;7.80;52.60;;;;;;4969565;28;20047;-73
2023/01/12 09:56:04;;;;;;;161.13;86.50;;;7.90;1.00;;;;;;4969444;28;20055;-72
2023/01/12 09:58:54;;;;;;;160.65;88.88;;;7.90;1.00;;;;;;4968438;28;20105;-74
2023/01/12 10:01:22;;;;;;;153.25;82.57;;;7.90;1.00;;;;;;4968663;28;20039;-72
2023/01/12 10:03:50;;;;;;;149.73;79.55;;;7.80;1.00;;;;;;4969741;28;20047;-73
2023/01/12 10:06:19;;;;;;;145.77;75.32;;;7.90;1.00;;;;;;4969563;28;20050;-74
2023/01/12 10:08:49;;;;;;;131.15;72.65;;;8.00;1.00;;;;;;4968789;28;20043;-72
2023/01/12 10:11:24;;;;;;;132.73;72.05;;;8.20;1.00;;;;;;4969209;28;20043;-74
2023/01/12 10:14:13;;;;;;;133.70;69.18;;;8.00;99.90;;;;;;4951007;28;20608;-73
2023/01/12 10:16:53;;;;;;;122.63;66.53;;;8.10;99.90;;;;;;4968725;28;20039;-73
2023/01/12 10:19:25;;;;;;;120.85;64.45;;;8.30;99.90;;;;;;4968870;28;20043;-73
2023/01/12 10:21:54;;;;;;;140.00;71.75;;;8.30;99.90;;;;;;4969078;28;20043;-73
2023/01/12 10:24:24;;;;;;;135.60;71.65;;;8.40;99.90;;;;;;4968516;28;20054;-74
2023/01/12 10:27:00;;;;;;;135.10;74.57;;;8.60;99.90;;;;;;4968661;28;20118;-73
2023/01/12 10:29:27;;;;;;;140.82;74.45;;;8.70;2.10;;;;;;4968642;28;20090;-74
2023/01/12 10:31:55;;;;;;;141.38;76.43;;;8.80;1.00;;;;;;4969216;28;20486;-73
2023/01/12 10:34:22;;;;;;;137.02;73.10;;;8.90;1.00;;;;;;4968665;28;20391;-73
2023/01/12 10:36:56;;;;;;;138.10;74.15;;;8.90;1.00;;;;;;4968659;28;20074;-72
2023/01/12 10:39:30;;;;;;;144.50;78.22;;;9.00;1.00;;;;;;4967784;28;20059;-73
2023/01/12 10:45:17;;;;;;;142.45;76.40;;;9.00;1.00;;;;;;4968027;28;20193;-74
2023/01/12 10:47:46;;;;;;;141.63;76.35;;;9.10;1.00;;;;;;4968022;28;20047;-75
2023/01/12 10:50:21;;;;;;;150.60;82.03;;;9.20;1.00;;;;;;4970111;28;20043;-75
2023/01/12 10:52:53;;;;;;;158.05;82.82;;;9.30;1.00;;;;;;4968560;28;20042;-74
2023/01/12 10:55:23;;;;;;;156.65;84.45;;;9.20;1.00;;;;;;4929598;28;1245954;-73
2023/01/12 10:57:53;;;;;;;157.95;82.55;;;9.30;1.00;;;;;;4973049;28;20062;-72
2023/01/12 11:00:23;;;;;;;162.82;85.90;;;9.30;1.00;;;;;;4973644;28;20039;-72
2023/01/12 11:02:51;;;;;;;156.00;83.00;;;9.30;1.00;;;;;;4973324;28;20486;-73
2023/01/12 11:05:30;;;;;;;160.80;83.00;;;9.40;1.00;;;;;;4973607;28;20134;-73
2023/01/12 11:07:58;;;;;;;160.68;85.55;;;9.40;1.00;;;;;;4972861;28;20050;-73
2023/01/12 11:10:34;;;;;;;160.45;85.95;;;9.60;1.00;;;;;;4973164;28;20035;-73
2023/01/12 11:13:03;;;;;;;155.95;84.68;;;9.70;1.00;;;;;;4973205;28;20066;-73
2023/01/12 11:15:37;;;;;;;154.70;85.28;;;9.70;1.00;;;;;;4974693;28;20054;-72
2023/01/12 11:18:36;;;;;;;159.30;86.47;;;9.80;1.00;;;;;;4973662;28;20579;-72
2023/01/12 11:21:08;;;;;;;139.48;77.15;;;10.00;1.00;;;;;;4958182;28;20047;-72
2023/01/12 11:23:42;;;;;;;119.45;66.78;;;10.10;1.00;;;;;;4975040;28;20051;-73
2023/01/12 11:26:20;;;;;;;118.20;64.88;;;10.00;1.00;;;;;;4972623;28;20053;-73
2023/01/12 11:28:52;;;;;;;124.50;66.07;;;10.00;1.00;;;;;;4972137;28;20046;-73
2023/01/12 11:31:22;;;;;;;119.05;69.40;;;9.90;1.00;;;;;;4972413;28;20419;-73
2023/01/12 11:33:55;;;;;;;114.03;64.68;;;10.00;1.00;;;;;;4972073;28;20058;-73
2023/01/12 11:36:26;;;;;;;100.18;57.10;;;10.00;1.00;;;;;;4972597;28;20113;-72
2023/01/12 11:39:00;;;;;;;122.68;62.53;;;10.20;1.00;;;;;;4972082;28;20047;-73
2023/01/12 11:41:35;;;;;;;89.18;50.63;;;10.30;1.00;;;;;;4972500;28;20049;-74
2023/01/12 11:44:11;;;;;;;85.73;47.17;;;10.20;1.00;;;;;;4975322;28;20046;-72
2023/01/12 11:46:41;;;;;;;;;;;10.30;1.00;;;;;;4975480;28;20296;-73
2023/01/12 11:49:15;;;;;;;67.57;35.83;;;10.20;1.00;;;;;;4972434;28;20263;-73
2023/01/12 11:51:44;;;;;;;65.88;36.28;;;10.40;1.00;;;;;;4972659;28;20061;-73
2023/01/12 11:54:16;;;;;;;54.35;31.83;;;10.50;1.00;;;;;;4972354;28;20113;-73
2023/01/12 11:57:14;;;;;;;47.97;29.40;;;10.70;1.00;;;;;;4972372;28;20035;-72
2023/01/12 11:59:54;;;;;;;43.85;26.35;;;10.80;1.00;;;;;;4965595;28;20087;-72
2023/01/12 12:02:35;;;;;;;35.22;20.15;;;10.60;1.00;;;;;;4972678;28;20051;-73
2023/01/12 12:05:18;;;;;;;38.20;21.65;;;10.30;1.00;;;;;;4971802;28;20043;-73
2023/01/12 12:08:03;;;;;;;40.20;23.35;;;10.20;1.00;;;;;;4972224;28;20074;-73
2023/01/12 12:10:40;;;;;;;51.50;31.23;;;10.10;1.00;;;;;;4971782;28;20038;-72
2023/01/12 12:13:26;;;;;;;35.28;23.17;;;10.10;1.00;;;;;;4970885;28;20042;-74
2023/01/12 12:15:57;;;;;;;;;;;10.20;1.00;;;;;;4971644;28;20047;-73
2023/01/12 12:18:43;;;;;;;40.17;22.92;;;10.20;1.00;;;;;;4971977;28;19926;-72
2023/01/12 12:21:35;;;;;;;44.03;23.83;;;10.50;1.00;;;;;;4970714;28;20043;-72
2023/01/12 12:24:09;;;;;;;45.05;24.38;;;10.50;1.00;;;;;;4973283;28;20442;-72
2023/01/12 12:26:42;;;;;;;38.50;24.85;;;10.60;1.00;;;;;;4972393;28;20514;-73
2023/01/12 12:29:28;;;;;;;37.45;24.02;;;10.60;1.00;;;;;;4971283;28;20042;-74
2023/01/12 12:32:08;;;;;;;45.00;26.08;;;10.40;1.00;;;;;;4972551;28;20528;-72
2023/01/12 12:35:01;;;;;;;46.60;27.17;;;10.50;1.00;;;;;;4970838;28;20070;-73
2023/01/12 12:37:43;;;;;;;51.08;29.55;;;10.50;1.00;;;;;;4970364;28;20050;-71
2023/01/12 12:40:20;;;;;;;54.15;30.42;;;10.50;1.00;;;;;;4971188;28;20035;-73
2023/01/12 12:45:53;;;;;;;55.55;34.67;;;10.50;1.00;;;;;;4971174;28;20070;-72
2023/01/12 12:48:27;;;;;;;54.30;33.30;;;10.30;1.00;;;;;;4971418;28;20043;-73
2023/01/12 12:51:03;;;;;;;56.80;33.10;;;10.10;1.00;;;;;;4972240;28;20053;-73
2023/01/12 12:53:34;;;;;;;55.65;34.42;;;9.90;1.00;;;;;;4971560;28;20039;-72
2023/01/12 12:56:04;;;;;;;63.63;36.45;;;10.00;1.00;;;;;;4971167;28;20083;-73
2023/01/12 12:58:44;;;;;;;56.20;34.67;;;10.10;1.00;;;;;;4971723;28;20047;-72
2023/01/12 13:01:42;;;;;;;64.13;36.58;;;10.20;1.00;;;;;;4971717;28;20073;-74
2023/01/12 13:04:13;;;;;;;64.10;38.33;;;10.30;1.00;;;;;;4947091;28;20078;-72
2023/01/12 13:06:48;;;;;;;60.20;36.88;;;10.30;1.00;;;;;;4972696;28;20134;-71
2023/01/12 13:09:42;;;;;;;64.72;36.47;;;10.20;1.00;;;;;;4976383;28;20047;-72
2023/01/12 13:12:22;;;;;;;60.83;36.33;;;10.00;1.00;;;;;;4975547;28;20042;-73
2023/01/12 13:15:17;;;;;;;59.83;35.83;;;10.10;1.00;;;;;;4974453;28;20077;-73
2023/01/12 13:17:46;;;;;;;63.03;35.45;;;9.70;1.00;;;;;;4973443;28;20095;-74
2023/01/12 13:20:46;;;;;;;58.90;35.25;;;9.60;1.00;;;;;;4973187;28;20046;-73
2023/01/12 13:23:43;;;;;;;58.97;34.67;;;9.50;1.00;;;;;;4972936;28;20061;-72
2023/01/12 13:26:44;;;;;;;66.60;36.75;;;9.60;1.00;;;;;;4975694;28;20054;-73
2023/01/12 13:29:38;;;;;;;53.65;32.63;;;9.70;1.00;;;;;;4978562;28;20041;-72
2023/01/12 13:32:45;;;;;;;58.67;35.13;;;9.80;1.00;;;;;;4972015;28;20070;-73
2023/01/12 13:35:43;;;;;;;70.15;37.17;;;9.90;1.00;;;;;;4968100;28;20590;-73